sensor_id;sensor_type;location;lat;lon;timestamp;P1;P2;P0
65574;PMS5003;52216;54.942;73.394;2022-07-29T00:00:48;11.50;10.50;5.00
65574;PMS5003;52216;54.942;73.394;2022-07-29T00:03:55;14.00;13.00;5.00
65574;PMS5003;52216;54.942;73.394;2022-07-29T00:06:57;14.00;11.50;5.00
65574;PMS5003;52216;54.942;73.394;2022-07-29T00:10:04;16.00;14.00;6.00
65574;PMS5003;52216;54.942;73.394;2022-07-29T00:13:06;16.25;14.00;6.00
65574;PMS5003;52216;54.942;73.394;2022-07-29T00:16:08;13.00;11.00;5.00
65574;PMS5003;52216;54.942;73.394;2022-07-29T00:19:20;11.00;11.00;4.00
65574;PMS5003;52216;54.942;73.394;2022-07-29T00:22:27;13.00;11.00;5.75
65574;PMS5003;52216;54.942;73.394;2022-07-29T00:25:29;15.00;14.00;6.00
65574;PMS5003;52216;54.942;73.394;2022-07-29T00:28:31;16.00;15.25;6.00
65574;PMS5003;52216;54.942;73.394;2022-07-29T00:31:44;18.00;17.00;6.00
65574;PMS5003;52216;54.942;73.394;2022-07-29T00:34:47;14.00;13.00;5.00
65574;PMS5003;52216;54.942;73.394;2022-07-29T00:38:17;14.00;12.00;4.00
65574;PMS5003;52216;54.942;73.394;2022-07-29T00:41:24;8.50;8.25;3.00
65574;PMS5003;52216;54.942;73.394;2022-07-29T00:44:26;8.00;7.00;2.00
65574;PMS5003;52216;54.942;73.394;2022-07-29T00:47:28;6.25;6.25;4.00
65574;PMS5003;52216;54.942;73.394;2022-07-29T00:50:36;6.50;5.75;2.00
65574;PMS5003;52216;54.942;73.394;2022-07-29T00:53:44;6.00;6.00;2.33
65574;PMS5003;52216;54.942;73.394;2022-07-29T00:56:47;4.00;4.00;1.00
65574;PMS5003;52216;54.942;73.394;2022-07-29T00:59:50;3.25;3.00;1.00
65574;PMS5003;52216;54.942;73.394;2022-07-29T01:03:03;5.00;5.00;0.00
65574;PMS5003;52216;54.942;73.394;2022-07-29T01:06:07;4.33;4.33;0.00
65574;PMS5003;52216;54.942;73.394;2022-07-29T01:09:09;5.00;5.00;0.00
65574;PMS5003;52216;54.942;73.394;2022-07-29T01:12:17;3.00;3.00;0.00
65574;PMS5003;52216;54.942;73.394;2022-07-29T01:15:21;4.67;4.67;0.00
65574;PMS5003;52216;54.942;73.394;2022-07-29T01:18:39;2.25;2.25;0.00
65574;PMS5003;52216;54.942;73.394;2022-07-29T01:21:51;2.00;2.00;0.00
65574;PMS5003;52216;54.942;73.394;2022-07-29T01:25:05;1.00;1.00;0.00
65574;PMS5003;52216;54.942;73.394;2022-07-29T01:31:54;1.00;1.00;0.00
65574;PMS5003;52216;54.942;73.394;2022-07-29T01:35:02;1.50;1.50;0.00
65574;PMS5003;52216;54.942;73.394;2022-07-29T01:38:08;3.25;2.50;0.00
65574;PMS5003;52216;54.942;73.394;2022-07-29T01:41:16;3.50;3.50;0.00
65574;PMS5003;52216;54.942;73.394;2022-07-29T01:44:22;3.00;3.00;0.00
65574;PMS5003;52216;54.942;73.394;2022-07-29T01:47:38;6.00;6.00;1.00
65574;PMS5003;52216;54.942;73.394;2022-07-29T01:51:27;3.00;3.00;2.00
65574;PMS5003;52216;54.942;73.394;2022-07-29T01:54:26;4.50;4.50;1.00
65574;PMS5003;52216;54.942;73.394;2022-07-29T01:57:31;9.75;8.75;3.00
65574;PMS5003;52216;54.942;73.394;2022-07-29T02:00:36;11.00;9.00;5.00
65574;PMS5003;52216;54.942;73.394;2022-07-29T02:03:39;10.00;10.00;4.00
65574;PMS5003;52216;54.942;73.394;2022-07-29T02:06:43;10.00;9.25;4.00
65574;PMS5003;52216;54.942;73.394;2022-07-29T02:09:46;9.75;7.50;4.00
65574;PMS5003;52216;54.942;73.394;2022-07-29T02:12:48;7.00;6.00;2.00
65574;PMS5003;52216;54.942;73.394;2022-07-29T02:15:51;6.75;6.75;3.00
65574;PMS5003;52216;54.942;73.394;2022-07-29T02:19:02;5.75;5.75;3.00
65574;PMS5003;52216;54.942;73.394;2022-07-29T02:22:16;7.00;7.00;3.25
65574;PMS5003;52216;54.942;73.394;2022-07-29T02:25:19;6.75;5.75;2.00
65574;PMS5003;52216;54.942;73.394;2022-07-29T02:28:32;6.00;6.00;2.00
65574;PMS5003;52216;54.942;73.394;2022-07-29T02:31:36;6.25;6.00;3.00
65574;PMS5003;52216;54.942;73.394;2022-07-29T02:34:40;7.00;7.00;4.00
65574;PMS5003;52216;54.942;73.394;2022-07-29T02:37:44;6.00;6.00;3.00
65574;PMS5003;52216;54.942;73.394;2022-07-29T02:41:10;7.50;7.25;2.75
65574;PMS5003;52216;54.942;73.394;2022-07-29T02:44:24;7.25;6.25;2.25
65574;PMS5003;52216;54.942;73.394;2022-07-29T02:47:35;8.00;7.25;3.00
65574;PMS5003;52216;54.942;73.394;2022-07-29T02:50:41;13.33;13.33;6.00
65574;PMS5003;52216;54.942;73.394;2022-07-29T02:53:47;23.75;23.00;12.00
65574;PMS5003;52216;54.942;73.394;2022-07-29T02:56:51;26.50;25.00;11.25
65574;PMS5003;52216;54.942;73.394;2022-07-29T03:00:07;30.50;27.50;13.50
65574;PMS5003;52216;54.942;73.394;2022-07-29T03:03:12;34.80;30.20;16.40
65574;PMS5003;52216;54.942;73.394;2022-07-29T03:06:17;40.50;33.75;19.00
65574;PMS5003;52216;54.942;73.394;2022-07-29T03:09:19;31.25;30.00;16.00
65574;PMS5003;52216;54.942;73.394;2022-07-29T03:12:23;28.00;26.20;14.40
65574;PMS5003;52216;54.942;73.394;2022-07-29T03:15:26;28.80;27.80;15.00
65574;PMS5003;52216;54.942;73.394;2022-07-29T03:18:28;25.00;25.00;13.00
65574;PMS5003;52216;54.942;73.394;2022-07-29T03:21:31;21.00;21.00;9.00
65574;PMS5003;52216;54.942;73.394;2022-07-29T03:24:35;18.25;17.00;5.00
65574;PMS5003;52216;54.942;73.394;2022-07-29T03:27:37;10.00;9.00;3.00
65574;PMS5003;52216;54.942;73.394;2022-07-29T03:30:41;9.50;9.25;6.00
65574;PMS5003;52216;54.942;73.394;2022-07-29T03:33:44;5.33;5.00;2.33
65574;PMS5003;52216;54.942;73.394;2022-07-29T03:36:51;3.00;3.00;1.00
65574;PMS5003;52216;54.942;73.394;2022-07-29T03:39:54;3.00;3.00;0.00
65574;PMS5003;52216;54.942;73.394;2022-07-29T03:42:58;2.00;2.00;0.00
65574;PMS5003;52216;54.942;73.394;2022-07-29T03:46:01;1.00;1.00;0.00
65574;PMS5003;52216;54.942;73.394;2022-07-29T03:49:06;1.00;1.00;0.00
65574;PMS5003;52216;54.942;73.394;2022-07-29T03:52:10;1.00;1.00;0.00
65574;PMS5003;52216;54.942;73.394;2022-07-29T03:55:14;0.00;0.00;0.00
65574;PMS5003;52216;54.942;73.394;2022-07-29T03:58:22;0.00;0.00;0.00
65574;PMS5003;52216;54.942;73.394;2022-07-29T04:01:26;0.00;0.00;0.00
65574;PMS5003;52216;54.942;73.394;2022-07-29T04:04:33;0.00;0.00;0.00
65574;PMS5003;52216;54.942;73.394;2022-07-29T04:07:45;1.00;1.00;0.00
65574;PMS5003;52216;54.942;73.394;2022-07-29T04:10:48;7.50;7.50;0.00
65574;PMS5003;52216;54.942;73.394;2022-07-29T04:13:51;20.75;20.00;11.75
65574;PMS5003;52216;54.942;73.394;2022-07-29T04:16:55;35.00;31.20;18.80
65574;PMS5003;52216;54.942;73.394;2022-07-29T04:19:58;39.00;33.40;20.00
65574;PMS5003;52216;54.942;73.394;2022-07-29T04:23:00;41.00;34.00;20.00
65574;PMS5003;52216;54.942;73.394;2022-07-29T04:26:02;39.25;32.00;19.00
65574;PMS5003;52216;54.942;73.394;2022-07-29T04:29:05;45.60;37.00;22.00
65574;PMS5003;52216;54.942;73.394;2022-07-29T04:32:07;49.00;39.00;23.50
65574;PMS5003;52216;54.942;73.394;2022-07-29T04:35:09;52.50;43.00;26.00
65574;PMS5003;52216;54.942;73.394;2022-07-29T04:38:11;52.00;41.75;25.00
65574;PMS5003;52216;54.942;73.394;2022-07-29T04:41:18;48.50;39.75;25.00
65574;PMS5003;52216;54.942;73.394;2022-07-29T04:44:21;48.00;40.60;26.00
65574;PMS5003;52216;54.942;73.394;2022-07-29T04:47:23;52.75;44.00;27.25
65574;PMS5003;52216;54.942;73.394;2022-07-29T04:50:28;54.25;44.00;27.00
65574;PMS5003;52216;54.942;73.394;2022-07-29T04:53:30;54.00;44.50;27.00
65574;PMS5003;52216;54.942;73.394;2022-07-29T04:56:32;54.00;43.50;27.00
65574;PMS5003;52216;54.942;73.394;2022-07-29T04:59:44;51.00;42.50;27.00
65574;PMS5003;52216;54.942;73.394;2022-07-29T05:02:48;45.00;38.50;24.00
65574;PMS5003;52216;54.942;73.394;2022-07-29T05:05:51;42.40;34.40;22.00
65574;PMS5003;52216;54.942;73.394;2022-07-29T05:08:53;40.75;34.00;21.00
65574;PMS5003;52216;54.942;73.394;2022-07-29T05:11:55;41.00;34.00;21.00
65574;PMS5003;52216;54.942;73.394;2022-07-29T05:14:58;46.80;38.40;22.20
65574;PMS5003;52216;54.942;73.394;2022-07-29T05:18:00;45.50;38.00;23.00
65574;PMS5003;52216;54.942;73.394;2022-07-29T05:21:02;47.75;39.25;24.50
65574;PMS5003;52216;54.942;73.394;2022-07-29T05:24:04;46.00;38.00;24.00
65574;PMS5003;52216;54.942;73.394;2022-07-29T05:27:16;43.00;36.00;23.00
65574;PMS5003;52216;54.942;73.394;2022-07-29T05:30:19;40.00;34.00;21.00
65574;PMS5003;52216;54.942;73.394;2022-07-29T05:33:21;39.50;33.50;21.00
65574;PMS5003;52216;54.942;73.394;2022-07-29T05:36:23;38.00;33.00;21.00
65574;PMS5003;52216;54.942;73.394;2022-07-29T05:39:25;38.75;34.00;20.00
65574;PMS5003;52216;54.942;73.394;2022-07-29T05:42:27;44.00;35.75;21.00
65574;PMS5003;52216;54.942;73.394;2022-07-29T05:45:41;43.40;35.00;21.40
65574;PMS5003;52216;54.942;73.394;2022-07-29T05:48:44;39.00;33.00;21.00
65574;PMS5003;52216;54.942;73.394;2022-07-29T05:51:47;36.00;31.50;20.00
65574;PMS5003;52216;54.942;73.394;2022-07-29T05:54:51;36.00;32.00;19.00
65574;PMS5003;52216;54.942;73.394;2022-07-29T05:57:54;38.00;32.00;19.20
65574;PMS5003;52216;54.942;73.394;2022-07-29T06:00:56;36.25;32.00;19.50
65574;PMS5003;52216;54.942;73.394;2022-07-29T06:04:00;34.00;30.00;20.00
65574;PMS5003;52216;54.942;73.394;2022-07-29T06:07:02;35.50;31.50;20.25
65574;PMS5003;52216;54.942;73.394;2022-07-29T06:10:14;36.50;32.00;19.00
65574;PMS5003;52216;54.942;73.394;2022-07-29T06:13:17;35.50;31.75;19.00
65574;PMS5003;52216;54.942;73.394;2022-07-29T06:16:29;30.00;29.00;19.00
65574;PMS5003;52216;54.942;73.394;2022-07-29T06:19:33;29.25;29.00;18.00
65574;PMS5003;52216;54.942;73.394;2022-07-29T06:22:36;27.00;26.75;17.00
65574;PMS5003;52216;54.942;73.394;2022-07-29T06:25:39;28.50;28.25;17.00
65574;PMS5003;52216;54.942;73.394;2022-07-29T06:28:45;30.75;29.75;18.50
65574;PMS5003;52216;54.942;73.394;2022-07-29T06:31:47;30.00;29.00;17.00
65574;PMS5003;52216;54.942;73.394;2022-07-29T06:34:59;29.00;26.00;16.00
65574;PMS5003;52216;54.942;73.394;2022-07-29T06:38:01;30.00;27.25;16.00
65574;PMS5003;52216;54.942;73.394;2022-07-29T06:41:03;32.00;27.25;17.00
65574;PMS5003;52216;54.942;73.394;2022-07-29T06:44:11;30.00;29.00;17.00
65574;PMS5003;52216;54.942;73.394;2022-07-29T06:47:13;30.00;29.00;17.00
65574;PMS5003;52216;54.942;73.394;2022-07-29T06:50:15;32.75;29.00;18.00
65574;PMS5003;52216;54.942;73.394;2022-07-29T06:53:19;34.00;31.00;17.25
65574;PMS5003;52216;54.942;73.394;2022-07-29T06:56:21;33.25;30.00;18.25
65574;PMS5003;52216;54.942;73.394;2022-07-29T06:59:23;34.00;30.75;19.00
65574;PMS5003;52216;54.942;73.394;2022-07-29T07:02:24;33.00;30.00;19.00
65574;PMS5003;52216;54.942;73.394;2022-07-29T07:05:37;30.00;29.00;19.00
65574;PMS5003;52216;54.942;73.394;2022-07-29T07:08:38;27.25;27.00;18.00
65574;PMS5003;52216;54.942;73.394;2022-07-29T07:11:50;27.00;25.75;16.00
65574;PMS5003;52216;54.942;73.394;2022-07-29T07:14:52;27.50;26.25;16.50
65574;PMS5003;52216;54.942;73.394;2022-07-29T07:17:55;29.00;27.00;18.40
65574;PMS5003;52216;54.942;73.394;2022-07-29T07:21:04;27.50;27.25;18.00
65574;PMS5003;52216;54.942;73.394;2022-07-29T07:24:07;27.00;26.00;16.00
65574;PMS5003;52216;54.942;73.394;2022-07-29T07:27:18;26.25;24.00;14.00
65574;PMS5003;52216;54.942;73.394;2022-07-29T07:30:22;26.60;24.60;13.00
65574;PMS5003;52216;54.942;73.394;2022-07-29T07:33:26;24.00;24.00;13.00
65574;PMS5003;52216;54.942;73.394;2022-07-29T07:36:29;23.60;22.20;12.20
65574;PMS5003;52216;54.942;73.394;2022-07-29T07:39:31;25.25;25.00;14.00
65574;PMS5003;52216;54.942;73.394;2022-07-29T07:42:40;27.00;27.00;17.00
65574;PMS5003;52216;54.942;73.394;2022-07-29T07:45:42;24.00;24.00;16.00
65574;PMS5003;52216;54.942;73.394;2022-07-29T07:48:45;24.40;23.00;14.00
65574;PMS5003;52216;54.942;73.394;2022-07-29T07:51:52;22.40;21.20;12.40
65574;PMS5003;52216;54.942;73.394;2022-07-29T07:55:00;21.75;21.25;12.50
65574;PMS5003;52216;54.942;73.394;2022-07-29T07:58:02;24.00;21.00;15.00
65574;PMS5003;52216;54.942;73.394;2022-07-29T08:01:05;21.60;18.00;13.00
65574;PMS5003;52216;54.942;73.394;2022-07-29T08:04:07;22.75;20.00;11.00
65574;PMS5003;52216;54.942;73.394;2022-07-29T08:07:15;21.50;20.50;10.25
65574;PMS5003;52216;54.942;73.394;2022-07-29T08:10:17;23.00;22.00;12.00
65574;PMS5003;52216;54.942;73.394;2022-07-29T08:13:40;25.20;23.00;13.60
65574;PMS5003;52216;54.942;73.394;2022-07-29T08:16:43;24.00;21.00;15.00
65574;PMS5003;52216;54.942;73.394;2022-07-29T08:19:47;22.60;22.00;14.00
65574;PMS5003;52216;54.942;73.394;2022-07-29T08:22:50;23.00;22.00;13.80
65574;PMS5003;52216;54.942;73.394;2022-07-29T08:25:52;24.00;22.00;14.00
65574;PMS5003;52216;54.942;73.394;2022-07-29T08:28:59;24.00;23.00;15.00
65574;PMS5003;52216;54.942;73.394;2022-07-29T08:32:01;19.75;19.75;14.00
65574;PMS5003;52216;54.942;73.394;2022-07-29T08:35:05;20.00;18.80;12.00
65574;PMS5003;52216;54.942;73.394;2022-07-29T08:38:16;21.00;20.00;12.00
65574;PMS5003;52216;54.942;73.394;2022-07-29T08:41:18;21.00;20.00;13.00
65574;PMS5003;52216;54.942;73.394;2022-07-29T08:44:20;20.50;20.50;12.00
65574;PMS5003;52216;54.942;73.394;2022-07-29T08:47:30;20.00;20.00;9.20
65574;PMS5003;52216;54.942;73.394;2022-07-29T08:50:34;20.00;20.00;10.25
65574;PMS5003;52216;54.942;73.394;2022-07-29T08:53:37;20.00;20.00;11.00
65574;PMS5003;52216;54.942;73.394;2022-07-29T08:56:41;19.60;19.60;12.00
65574;PMS5003;52216;54.942;73.394;2022-07-29T08:59:44;23.00;21.00;12.25
65574;PMS5003;52216;54.942;73.394;2022-07-29T09:02:50;23.25;20.25;13.00
65574;PMS5003;52216;54.942;73.394;2022-07-29T09:05:53;20.00;20.00;11.75
65574;PMS5003;52216;54.942;73.394;2022-07-29T09:08:56;21.00;21.00;11.75
65574;PMS5003;52216;54.942;73.394;2022-07-29T09:12:07;21.00;21.00;11.00
65574;PMS5003;52216;54.942;73.394;2022-07-29T09:15:09;21.00;21.00;13.75
65574;PMS5003;52216;54.942;73.394;2022-07-29T09:18:12;21.33;20.00;12.00
65574;PMS5003;52216;54.942;73.394;2022-07-29T09:21:16;21.00;21.00;13.00
65574;PMS5003;52216;54.942;73.394;2022-07-29T09:24:48;20.00;20.00;13.00
65574;PMS5003;52216;54.942;73.394;2022-07-29T09:27:51;22.75;20.75;13.00
65574;PMS5003;52216;54.942;73.394;2022-07-29T09:30:57;22.00;20.00;13.00
65574;PMS5003;52216;54.942;73.394;2022-07-29T09:34:03;23.00;22.00;13.00
65574;PMS5003;52216;54.942;73.394;2022-07-29T09:37:06;23.00;23.00;13.00
65574;PMS5003;52216;54.942;73.394;2022-07-29T09:40:18;22.00;22.00;14.00
65574;PMS5003;52216;54.942;73.394;2022-07-29T09:43:21;21.50;21.50;12.00
65574;PMS5003;52216;54.942;73.394;2022-07-29T09:46:23;22.00;22.00;13.00
65574;PMS5003;52216;54.942;73.394;2022-07-29T09:49:25;26.50;24.00;13.50
65574;PMS5003;52216;54.942;73.394;2022-07-29T09:52:48;25.00;23.00;11.00
65574;PMS5003;52216;54.942;73.394;2022-07-29T09:55:51;23.60;23.60;11.60
65574;PMS5003;52216;54.942;73.394;2022-07-29T09:59:06;25.50;25.25;14.25
65574;PMS5003;52216;54.942;73.394;2022-07-29T10:02:11;28.50;28.17;14.67
65574;PMS5003;52216;54.942;73.394;2022-07-29T10:05:31;30.00;29.00;17.00
65574;PMS5003;52216;54.942;73.394;2022-07-29T10:08:35;30.00;29.00;16.00
65574;PMS5003;52216;54.942;73.394;2022-07-29T10:11:37;27.50;27.00;18.00
65574;PMS5003;52216;54.942;73.394;2022-07-29T10:14:41;25.60;25.00;17.00
65574;PMS5003;52216;54.942;73.394;2022-07-29T10:17:43;27.00;25.75;16.00
65574;PMS5003;52216;54.942;73.394;2022-07-29T10:20:46;28.20;26.00;16.00
65574;PMS5003;52216;54.942;73.394;2022-07-29T10:23:49;27.50;25.75;15.25
65574;PMS5003;52216;54.942;73.394;2022-07-29T10:26:52;26.75;26.25;15.00
65574;PMS5003;52216;54.942;73.394;2022-07-29T10:29:55;30.00;26.33;16.00
65574;PMS5003;52216;54.942;73.394;2022-07-29T10:33:09;27.00;25.00;15.00
65574;PMS5003;52216;54.942;73.394;2022-07-29T10:39:48;25.00;24.00;14.40
65574;PMS5003;52216;54.942;73.394;2022-07-29T10:42:55;24.00;23.00;14.40
65574;PMS5003;52216;54.942;73.394;2022-07-29T10:46:09;23.00;22.00;12.00
65574;PMS5003;52216;54.942;73.394;2022-07-29T10:52:16;24.25;23.00;13.75
65574;PMS5003;52216;54.942;73.394;2022-07-29T10:55:34;24.20;22.00;11.00
65574;PMS5003;52216;54.942;73.394;2022-07-29T10:58:41;26.00;23.20;11.20
65574;PMS5003;52216;54.942;73.394;2022-07-29T11:01:53;25.00;22.00;11.00
65574;PMS5003;52216;54.942;73.394;2022-07-29T11:05:06;23.00;21.75;11.00
65574;PMS5003;52216;54.942;73.394;2022-07-29T11:21:03;24.00;22.00;12.00
65574;PMS5003;52216;54.942;73.394;2022-07-29T11:27:18;20.50;19.50;10.75
65574;PMS5003;52216;54.942;73.394;2022-07-29T11:30:48;22.80;20.60;11.00
65574;PMS5003;52216;54.942;73.394;2022-07-29T11:33:52;21.40;20.40;10.00
65574;PMS5003;52216;54.942;73.394;2022-07-29T11:40:11;19.50;18.00;8.75
65574;PMS5003;52216;54.942;73.394;2022-07-29T11:43:30;22.00;20.20;10.80
65574;PMS5003;52216;54.942;73.394;2022-07-29T11:49:56;21.00;19.00;9.00
65574;PMS5003;52216;54.942;73.394;2022-07-29T11:53:12;21.80;19.00;10.00
65574;PMS5003;52216;54.942;73.394;2022-07-29T11:56:15;20.00;17.60;9.00
65574;PMS5003;52216;54.942;73.394;2022-07-29T11:59:28;20.50;19.00;8.00
65574;PMS5003;52216;54.942;73.394;2022-07-29T12:02:42;20.00;20.00;10.67
65574;PMS5003;52216;54.942;73.394;2022-07-29T12:05:45;20.00;19.00;9.00
65574;PMS5003;52216;54.942;73.394;2022-07-29T12:08:48;19.00;18.00;9.40
65574;PMS5003;52216;54.942;73.394;2022-07-29T12:11:59;20.00;17.00;9.00
65574;PMS5003;52216;54.942;73.394;2022-07-29T12:15:15;18.00;16.00;8.00
65574;PMS5003;52216;54.942;73.394;2022-07-29T12:18:19;18.25;16.00;8.00
65574;PMS5003;52216;54.942;73.394;2022-07-29T12:21:23;20.00;18.00;10.00
65574;PMS5003;52216;54.942;73.394;2022-07-29T12:24:26;19.00;17.40;9.00
65574;PMS5003;52216;54.942;73.394;2022-07-29T12:28:01;18.00;17.00;8.00
65574;PMS5003;52216;54.942;73.394;2022-07-29T12:31:03;17.33;16.00;8.00
65574;PMS5003;52216;54.942;73.394;2022-07-29T12:34:06;16.00;16.00;8.00
65574;PMS5003;52216;54.942;73.394;2022-07-29T12:37:08;16.00;16.00;7.00
65574;PMS5003;52216;54.942;73.394;2022-07-29T12:40:13;18.25;17.75;9.00
65574;PMS5003;52216;54.942;73.394;2022-07-29T12:43:17;21.00;19.00;8.25
65574;PMS5003;52216;54.942;73.394;2022-07-29T12:46:20;19.00;17.00;8.75
65574;PMS5003;52216;54.942;73.394;2022-07-29T12:49:23;17.00;16.00;7.00
65574;PMS5003;52216;54.942;73.394;2022-07-29T12:52:28;18.00;18.00;9.00
65574;PMS5003;52216;54.942;73.394;2022-07-29T12:55:39;19.00;18.50;9.00
65574;PMS5003;52216;54.942;73.394;2022-07-29T12:58:42;18.00;18.00;7.00
65574;PMS5003;52216;54.942;73.394;2022-07-29T13:01:46;15.50;15.50;6.75
65574;PMS5003;52216;54.942;73.394;2022-07-29T13:05:00;19.75;19.00;8.00
65574;PMS5003;52216;54.942;73.394;2022-07-29T13:08:13;19.00;19.00;7.75
65574;PMS5003;52216;54.942;73.394;2022-07-29T13:11:32;17.00;16.00;6.00
65574;PMS5003;52216;54.942;73.394;2022-07-29T13:14:46;17.00;17.00;7.00
65574;PMS5003;52216;54.942;73.394;2022-07-29T13:17:48;15.00;15.00;7.00
65574;PMS5003;52216;54.942;73.394;2022-07-29T13:20:50;15.00;14.00;7.00
65574;PMS5003;52216;54.942;73.394;2022-07-29T13:23:52;16.75;14.50;7.00
65574;PMS5003;52216;54.942;73.394;2022-07-29T13:26:54;15.50;14.00;6.00
65574;PMS5003;52216;54.942;73.394;2022-07-29T13:29:56;16.75;14.75;6.00
65574;PMS5003;52216;54.942;73.394;2022-07-29T13:32:59;14.50;12.00;7.00
65574;PMS5003;52216;54.942;73.394;2022-07-29T13:36:11;13.00;10.00;5.00
65574;PMS5003;52216;54.942;73.394;2022-07-29T13:39:14;13.25;11.25;5.25
65574;PMS5003;52216;54.942;73.394;2022-07-29T13:42:16;14.00;12.00;7.00
65574;PMS5003;52216;54.942;73.394;2022-07-29T13:45:19;14.00;14.00;6.00
65574;PMS5003;52216;54.942;73.394;2022-07-29T13:48:21;14.00;13.00;6.50
65574;PMS5003;52216;54.942;73.394;2022-07-29T13:51:24;9.50;9.50;6.00
65574;PMS5003;52216;54.942;73.394;2022-07-29T13:54:27;9.00;9.00;5.00
65574;PMS5003;52216;54.942;73.394;2022-07-29T13:57:28;9.00;9.00;5.00
65574;PMS5003;52216;54.942;73.394;2022-07-29T14:00:32;9.00;9.00;5.00
65574;PMS5003;52216;54.942;73.394;2022-07-29T14:03:34;11.00;9.67;5.67
65574;PMS5003;52216;54.942;73.394;2022-07-29T14:06:39;9.00;9.00;5.50
65574;PMS5003;52216;54.942;73.394;2022-07-29T14:09:40;11.00;11.00;5.00
65574;PMS5003;52216;54.942;73.394;2022-07-29T14:12:43;13.00;13.00;6.00
65574;PMS5003;52216;54.942;73.394;2022-07-29T14:15:46;9.00;9.00;4.00
65574;PMS5003;52216;54.942;73.394;2022-07-29T14:18:59;9.00;8.75;5.75
65574;PMS5003;52216;54.942;73.394;2022-07-29T14:22:02;10.00;10.00;5.00
65574;PMS5003;52216;54.942;73.394;2022-07-29T14:25:04;8.50;8.50;5.25
65574;PMS5003;52216;54.942;73.394;2022-07-29T14:28:06;14.00;14.00;7.25
65574;PMS5003;52216;54.942;73.394;2022-07-29T14:31:08;16.50;11.75;6.00
65574;PMS5003;52216;54.942;73.394;2022-07-29T14:34:21;11.67;8.67;4.33
65574;PMS5003;52216;54.942;73.394;2022-07-29T14:37:23;8.00;7.75;5.00
65574;PMS5003;52216;54.942;73.394;2022-07-29T14:40:30;9.75;9.00;5.00
65574;PMS5003;52216;54.942;73.394;2022-07-29T14:43:33;10.33;9.00;5.00
65574;PMS5003;52216;54.942;73.394;2022-07-29T14:46:35;11.00;8.00;5.00
65574;PMS5003;52216;54.942;73.394;2022-07-29T14:49:38;9.00;8.75;5.25
65574;PMS5003;52216;54.942;73.394;2022-07-29T14:52:41;9.00;8.50;4.25
65574;PMS5003;52216;54.942;73.394;2022-07-29T14:55:45;8.00;7.00;4.00
65574;PMS5003;52216;54.942;73.394;2022-07-29T14:58:46;9.00;8.00;3.00
65574;PMS5003;52216;54.942;73.394;2022-07-29T15:01:49;9.00;8.00;5.00
65574;PMS5003;52216;54.942;73.394;2022-07-29T15:04:51;9.50;9.50;5.00
65574;PMS5003;52216;54.942;73.394;2022-07-29T15:07:59;12.00;11.67;5.00
65574;PMS5003;52216;54.942;73.394;2022-07-29T15:11:01;12.00;10.00;5.00
65574;PMS5003;52216;54.942;73.394;2022-07-29T15:14:03;11.00;9.00;5.00
65574;PMS5003;52216;54.942;73.394;2022-07-29T15:17:05;8.00;8.00;4.00
65574;PMS5003;52216;54.942;73.394;2022-07-29T15:20:09;11.75;11.75;5.50
65574;PMS5003;52216;54.942;73.394;2022-07-29T15:23:12;11.00;10.00;5.00
65574;PMS5003;52216;54.942;73.394;2022-07-29T15:26:19;9.00;9.00;5.00
65574;PMS5003;52216;54.942;73.394;2022-07-29T15:29:22;10.33;9.33;7.00
65574;PMS5003;52216;54.942;73.394;2022-07-29T15:32:28;10.00;9.00;5.00
65574;PMS5003;52216;54.942;73.394;2022-07-29T15:35:31;9.50;8.75;5.00
65574;PMS5003;52216;54.942;73.394;2022-07-29T15:38:34;8.00;8.00;6.00
65574;PMS5003;52216;54.942;73.394;2022-07-29T15:41:38;9.00;9.00;5.00
65574;PMS5003;52216;54.942;73.394;2022-07-29T15:44:41;8.00;8.00;4.00
65574;PMS5003;52216;54.942;73.394;2022-07-29T15:47:44;10.00;8.50;5.00
65574;PMS5003;52216;54.942;73.394;2022-07-29T15:50:46;10.00;9.33;5.00
65574;PMS5003;52216;54.942;73.394;2022-07-29T15:53:49;8.00;7.00;4.00
65574;PMS5003;52216;54.942;73.394;2022-07-29T15:56:51;7.00;6.00;4.00
65574;PMS5003;52216;54.942;73.394;2022-07-29T15:59:54;7.00;6.75;3.00
65574;PMS5003;52216;54.942;73.394;2022-07-29T16:03:06;6.00;5.00;3.00
65574;PMS5003;52216;54.942;73.394;2022-07-29T16:06:14;5.25;5.25;3.00
65574;PMS5003;52216;54.942;73.394;2022-07-29T16:09:17;7.00;6.50;3.50
65574;PMS5003;52216;54.942;73.394;2022-07-29T16:12:19;7.00;6.00;2.00
65574;PMS5003;52216;54.942;73.394;2022-07-29T16:15:21;9.00;7.00;3.00
65574;PMS5003;52216;54.942;73.394;2022-07-29T16:18:35;8.25;7.00;4.25
65574;PMS5003;52216;54.942;73.394;2022-07-29T16:21:38;8.75;8.50;4.00
65574;PMS5003;52216;54.942;73.394;2022-07-29T16:24:41;6.75;6.75;4.00
65574;PMS5003;52216;54.942;73.394;2022-07-29T16:27:44;9.00;8.00;4.00
65574;PMS5003;52216;54.942;73.394;2022-07-29T16:30:56;10.33;8.67;5.00
65574;PMS5003;52216;54.942;73.394;2022-07-29T16:34:03;8.00;8.00;4.00
65574;PMS5003;52216;54.942;73.394;2022-07-29T16:37:06;8.00;8.00;4.00
65574;PMS5003;52216;54.942;73.394;2022-07-29T16:40:19;9.00;6.75;3.75
65574;PMS5003;52216;54.942;73.394;2022-07-29T16:43:22;8.25;8.25;4.25
65574;PMS5003;52216;54.942;73.394;2022-07-29T16:46:25;6.00;6.00;4.00
65574;PMS5003;52216;54.942;73.394;2022-07-29T16:49:32;8.75;8.75;6.50
65574;PMS5003;52216;54.942;73.394;2022-07-29T16:52:40;7.00;7.00;4.00
65574;PMS5003;52216;54.942;73.394;2022-07-29T16:55:43;5.00;5.00;3.00
65574;PMS5003;52216;54.942;73.394;2022-07-29T16:58:45;7.25;7.25;3.00
65574;PMS5003;52216;54.942;73.394;2022-07-29T17:01:46;5.75;5.75;2.00
65574;PMS5003;52216;54.942;73.394;2022-07-29T17:04:55;6.00;6.00;2.00
65574;PMS5003;52216;54.942;73.394;2022-07-29T17:07:58;6.00;5.50;2.50
65574;PMS5003;52216;54.942;73.394;2022-07-29T17:11:02;6.00;6.00;4.00
65574;PMS5003;52216;54.942;73.394;2022-07-29T17:14:15;5.00;5.00;2.00
65574;PMS5003;52216;54.942;73.394;2022-07-29T17:17:23;6.00;6.00;2.00
65574;PMS5003;52216;54.942;73.394;2022-07-29T17:20:34;4.00;4.00;2.00
65574;PMS5003;52216;54.942;73.394;2022-07-29T17:23:38;6.75;6.75;2.75
65574;PMS5003;52216;54.942;73.394;2022-07-29T17:26:50;7.00;7.00;3.00
65574;PMS5003;52216;54.942;73.394;2022-07-29T17:29:52;2.25;2.25;2.00
65574;PMS5003;52216;54.942;73.394;2022-07-29T17:32:55;4.00;3.00;1.00
65574;PMS5003;52216;54.942;73.394;2022-07-29T17:35:58;4.00;3.00;1.00
65574;PMS5003;52216;54.942;73.394;2022-07-29T17:39:18;4.00;4.00;0.00
65574;PMS5003;52216;54.942;73.394;2022-07-29T17:42:29;4.00;4.00;1.00
65574;PMS5003;52216;54.942;73.394;2022-07-29T17:45:33;4.75;4.75;1.00
65574;PMS5003;52216;54.942;73.394;2022-07-29T17:48:35;5.00;5.00;1.00
65574;PMS5003;52216;54.942;73.394;2022-07-29T17:51:37;4.00;4.00;1.00
65574;PMS5003;52216;54.942;73.394;2022-07-29T17:54:40;4.75;4.50;2.00
65574;PMS5003;52216;54.942;73.394;2022-07-29T17:57:42;5.00;5.00;1.00